createdAt,value
2022-09-23T00:01:07.626Z,6.53
2022-09-23T00:03:37.160Z,6.07
2022-09-23T00:06:07.101Z,5.15
2022-09-23T00:08:34.310Z,9.20
2022-09-23T00:11:25.157Z,5.32
2022-09-23T00:13:55.514Z,5.85
2022-09-23T00:16:25.780Z,6.68
2022-09-23T00:18:52.647Z,4.95
2022-09-23T00:21:21.208Z,9.57
2022-09-23T00:23:48.501Z,5.40
2022-09-23T00:26:17.245Z,7.43
2022-09-23T00:28:44.002Z,6.90
2022-09-23T00:31:14.409Z,8.95
2022-09-23T00:33:41.440Z,7.90
2022-09-23T00:36:11.967Z,6.07
2022-09-23T00:38:39.112Z,7.18
2022-09-23T00:41:06.466Z,8.57
2022-09-23T00:43:37.538Z,6.10
2022-09-23T00:46:04.603Z,6.50
2022-09-23T00:48:31.394Z,8.43
2022-09-23T00:50:58.077Z,5.57
2022-09-23T00:53:29.628Z,7.18
2022-09-23T00:56:04.401Z,8.18
2022-09-23T00:58:34.026Z,5.72
2022-09-23T01:01:02.332Z,6.55
2022-09-23T01:03:29.209Z,6.93
2022-09-23T01:05:57.258Z,6.45
2022-09-23T01:08:24.515Z,5.43
2022-09-23T01:11:15.315Z,6.65
2022-09-23T01:13:52.474Z,7.68
2022-09-23T01:16:43.497Z,6.90
2022-09-23T01:19:57.737Z,5.82
2022-09-23T01:22:29.720Z,7.05
2022-09-23T01:25:17.566Z,5.95
2022-09-23T01:27:55.877Z,8.75
2022-09-23T01:30:37.937Z,9.13
2022-09-23T01:33:39.504Z,9.57
2022-09-23T01:36:36.138Z,9.30
2022-09-23T01:39:35.066Z,11.23
2022-09-23T01:42:14.257Z,6.88
2022-09-23T01:44:51.767Z,7.32
2022-09-23T01:47:48.140Z,7.88
2022-09-23T01:50:37.477Z,6.90
2022-09-23T01:53:14.476Z,8.63
2022-09-23T01:55:47.470Z,5.88
2022-09-23T01:58:53.764Z,7.38
2022-09-23T02:01:31.116Z,7.93
2022-09-23T02:04:04.223Z,7.03
2022-09-23T02:06:51.130Z,8.25
2022-09-23T02:09:24.943Z,7.93
2022-09-23T02:11:58.751Z,8.35
2022-09-23T02:14:31.463Z,9.25
2022-09-23T02:17:03.277Z,7.63
2022-09-23T02:22:23.431Z,8.00
2022-09-23T02:24:50.430Z,8.18
2022-09-23T02:27:24.168Z,7.18
2022-09-23T02:30:12.534Z,8.27
2022-09-23T02:32:42.062Z,8.18
2022-09-23T02:35:22.570Z,26.52
2022-09-23T02:37:59.270Z,11.23
2022-09-23T02:40:43.631Z,11.38
2022-09-23T02:43:35.608Z,11.63
2022-09-23T02:46:04.754Z,8.77
2022-09-23T02:48:41.519Z,6.95
2022-09-23T02:51:09.903Z,8.43
2022-09-23T02:53:37.246Z,10.88
2022-09-23T02:56:14.777Z,11.00
2022-09-23T02:58:41.731Z,8.40
2022-09-23T03:01:37.272Z,10.38
2022-09-23T03:04:19.002Z,7.72
2022-09-23T03:07:00.709Z,11.15
2022-09-23T03:09:44.525Z,9.30
2022-09-23T03:12:22.233Z,8.88
2022-09-23T03:15:24.811Z,12.15
2022-09-23T03:18:02.880Z,10.00
2022-09-23T03:21:05.190Z,10.68
2022-09-23T03:26:20.922Z,7.40
2022-09-23T03:28:50.252Z,12.15
2022-09-23T03:31:18.055Z,10.68
2022-09-23T03:33:52.200Z,9.70
2022-09-23T03:36:44.106Z,10.55
2022-09-23T03:39:18.247Z,9.57
2022-09-23T03:41:50.769Z,9.18
2022-09-23T03:44:19.577Z,11.85
2022-09-23T03:46:49.792Z,13.13
2022-09-23T03:49:27.345Z,11.73
2022-09-23T03:51:55.024Z,11.27
2022-09-23T03:54:21.983Z,11.52
2022-09-23T03:56:48.739Z,11.75
2022-09-23T03:59:16.040Z,11.05
2022-09-23T04:01:43.139Z,13.07
2022-09-23T04:04:10.355Z,10.65
2022-09-23T04:06:37.037Z,11.80
2022-09-23T04:09:03.894Z,11.18
2022-09-23T04:11:30.728Z,11.38
2022-09-23T04:13:57.518Z,12.52
2022-09-23T04:16:24.830Z,9.15
2022-09-23T04:18:51.854Z,10.63
2022-09-23T04:21:18.532Z,13.15
2022-09-23T04:23:46.397Z,10.82
2022-09-23T04:26:13.561Z,11.63
2022-09-23T04:28:40.397Z,9.40
2022-09-23T04:31:08.567Z,12.85
2022-09-23T04:33:35.650Z,11.65
2022-09-23T04:36:02.414Z,10.57
2022-09-23T04:38:29.189Z,13.45
2022-09-23T04:40:55.922Z,12.65
2022-09-23T04:43:23.660Z,12.82
2022-09-23T04:46:05.149Z,12.38
2022-09-23T04:48:32.336Z,11.30
2022-09-23T04:51:04.140Z,13.48
2022-09-23T04:56:02.828Z,11.55
2022-09-23T04:58:29.481Z,14.63
2022-09-23T05:01:00.589Z,15.23
2022-09-23T05:03:35.117Z,14.40
2022-09-23T05:06:02.086Z,12.38
2022-09-23T05:08:29.544Z,12.48
2022-09-23T05:11:00.260Z,15.70
2022-09-23T05:13:27.291Z,15.68
2022-09-23T05:16:02.272Z,17.05
2022-09-23T05:18:31.990Z,15.55
2022-09-23T05:20:58.685Z,14.35
2022-09-23T05:23:25.713Z,13.38
2022-09-23T05:26:03.921Z,13.55
2022-09-23T05:28:34.973Z,13.43
2022-09-23T05:31:05.904Z,14.88
2022-09-23T05:33:34.133Z,15.50
2022-09-23T05:36:01.783Z,15.20
2022-09-23T05:38:29.369Z,15.23
2022-09-23T05:41:04.647Z,15.45
2022-09-23T05:43:32.286Z,13.60
2022-09-23T05:46:08.506Z,12.63
2022-09-23T05:48:36.673Z,14.82
2022-09-23T05:51:04.562Z,13.25
2022-09-23T05:53:31.454Z,16.00
2022-09-23T05:55:58.213Z,14.05
2022-09-23T05:58:25.325Z,16.38
2022-09-23T06:00:52.273Z,14.10
2022-09-23T06:03:20.500Z,14.68
2022-09-23T06:05:48.431Z,16.33
2022-09-23T06:08:15.465Z,14.65
2022-09-23T06:10:45.070Z,14.35
2022-09-23T06:13:12.041Z,15.25
2022-09-23T06:15:39.523Z,14.38
2022-09-23T06:18:06.939Z,14.30
2022-09-23T06:20:34.902Z,14.27
2022-09-23T06:23:10.220Z,13.32
2022-09-23T06:25:38.504Z,14.95
2022-09-23T06:28:12.088Z,13.05
2022-09-23T06:30:42.662Z,14.50
2022-09-23T06:33:10.051Z,13.07
2022-09-23T06:35:36.811Z,13.23
2022-09-23T06:38:04.931Z,15.73
2022-09-23T06:40:32.528Z,14.57
2022-09-23T06:43:00.739Z,14.68
2022-09-23T06:45:28.466Z,15.95
2022-09-23T06:47:57.015Z,15.73
2022-09-23T06:50:27.431Z,16.90
2022-09-23T06:52:56.177Z,18.17
2022-09-23T06:55:24.763Z,15.40
2022-09-23T06:57:51.528Z,15.38
2022-09-23T07:00:19.109Z,18.00
2022-09-23T07:02:46.200Z,15.60
2022-09-23T07:05:13.487Z,14.30
2022-09-23T07:07:40.228Z,14.38
2022-09-23T07:10:07.845Z,15.68
2022-09-23T07:12:34.551Z,14.40
2022-09-23T07:15:01.183Z,13.95
2022-09-23T07:17:28.202Z,14.05
2022-09-23T07:19:58.424Z,14.52
2022-09-23T07:22:28.421Z,13.85
2022-09-23T07:24:57.761Z,16.88
2022-09-23T07:27:25.838Z,16.88
2022-09-23T07:29:53.238Z,18.38
2022-09-23T07:32:22.063Z,14.73
2022-09-23T07:34:49.333Z,13.38
2022-09-23T07:37:17.331Z,12.27
2022-09-23T07:39:45.065Z,13.57
2022-09-23T07:42:14.240Z,14.07
2022-09-23T07:44:47.716Z,12.48
2022-09-23T07:47:15.647Z,12.90
2022-09-23T07:49:42.309Z,14.10
2022-09-23T07:52:08.961Z,12.98
2022-09-23T07:54:35.703Z,13.05
2022-09-23T07:57:02.587Z,12.77
2022-09-23T07:59:29.373Z,13.77
2022-09-23T08:01:57.248Z,11.68
2022-09-23T08:04:28.182Z,13.38
2022-09-23T08:07:00.220Z,11.47
2022-09-23T08:09:31.759Z,14.80
2022-09-23T08:11:58.610Z,13.93
2022-09-23T08:14:25.335Z,12.55
2022-09-23T08:16:52.246Z,12.43
2022-09-23T08:19:19.137Z,11.45
2022-09-23T08:21:47.500Z,13.05
2022-09-23T08:24:19.368Z,10.20
2022-09-23T08:29:15.240Z,15.05
2022-09-23T08:31:42.608Z,10.68
2022-09-23T08:34:09.666Z,14.43
2022-09-23T08:36:37.125Z,12.18
2022-09-23T08:39:05.118Z,12.98
2022-09-23T08:41:40.531Z,13.43
2022-09-23T08:44:37.490Z,12.85
2022-09-23T08:47:34.722Z,9.02
2022-09-23T08:50:18.116Z,9.90
2022-09-23T08:52:56.857Z,12.40
2022-09-23T08:55:43.574Z,13.23
2022-09-23T08:58:35.162Z,12.70
2022-09-23T09:01:40.563Z,12.77
2022-09-23T09:04:22.939Z,11.13
2022-09-23T09:07:31.736Z,11.63
2022-09-23T09:10:16.689Z,9.90
2022-09-23T09:12:44.877Z,10.07
2022-09-23T09:15:13.162Z,13.32
2022-09-23T09:18:02.300Z,10.95
2022-09-23T09:20:54.797Z,9.93
2022-09-23T09:23:22.687Z,10.15
2022-09-23T09:25:52.608Z,11.60
2022-09-23T09:28:35.797Z,10.60
2022-09-23T09:31:22.808Z,11.48
2022-09-23T09:34:00.396Z,11.90
2022-09-23T09:36:36.249Z,10.55
2022-09-23T09:39:03.692Z,9.68
2022-09-23T09:41:31.570Z,16.52
2022-09-23T09:44:01.398Z,14.63
2022-09-23T09:46:50.857Z,12.57
2022-09-23T09:49:39.499Z,13.85
2022-09-23T09:52:13.972Z,10.63
2022-09-23T09:54:40.678Z,9.57
2022-09-23T09:57:33.613Z,10.20
2022-09-23T10:00:25.710Z,11.38
2022-09-23T10:02:54.270Z,9.00
2022-09-23T10:05:34.452Z,11.15
2022-09-23T10:08:27.295Z,11.52
2022-09-23T10:11:06.902Z,10.30
2022-09-23T10:13:33.552Z,9.27
2022-09-23T10:16:03.816Z,9.52
2022-09-23T10:18:50.348Z,11.00
2022-09-23T10:21:25.509Z,10.98
2022-09-23T10:24:01.553Z,10.98
2022-09-23T10:26:42.555Z,11.13
2022-09-23T10:29:32.951Z,14.13
2022-09-23T10:32:27.818Z,13.23
2022-09-23T10:35:03.308Z,11.38
2022-09-23T10:37:46.775Z,10.02
2022-09-23T10:40:32.385Z,10.18
2022-09-23T10:43:29.927Z,8.45
2022-09-23T10:46:21.763Z,7.55
2022-09-23T10:51:58.515Z,8.97
2022-09-23T10:54:40.140Z,10.38
2022-09-23T10:57:45.547Z,9.73
2022-09-23T11:00:27.243Z,13.85
2022-09-23T11:05:50.004Z,9.23
2022-09-23T11:08:42.731Z,12.68
2022-09-23T11:11:15.592Z,10.90
2022-09-23T11:14:04.151Z,9.80
2022-09-23T11:16:54.306Z,9.68
2022-09-23T11:19:56.455Z,10.45
2022-09-23T11:22:37.396Z,10.35
2022-09-23T11:25:58.150Z,12.87
2022-09-23T11:28:45.397Z,10.60
2022-09-23T11:31:36.371Z,11.57
2022-09-23T11:34:26.010Z,12.47
2022-09-23T11:36:59.690Z,9.90
2022-09-23T11:39:53.299Z,10.43
2022-09-23T11:42:25.065Z,8.73
2022-09-23T11:45:06.925Z,9.48
2022-09-23T11:47:44.969Z,10.77
2022-09-23T11:50:21.521Z,9.07
2022-09-23T11:52:53.906Z,8.27
2022-09-23T11:55:55.029Z,12.65
2022-09-23T11:58:30.166Z,8.85
2022-09-23T12:01:10.162Z,11.65
2022-09-23T12:04:17.298Z,8.95
2022-09-23T12:06:52.594Z,8.40
2022-09-23T12:09:56.853Z,10.68
2022-09-23T12:12:39.704Z,10.40
2022-09-23T12:15:21.520Z,8.85
2022-09-23T12:18:06.899Z,9.30
2022-09-23T12:20:55.839Z,10.07
2022-09-23T12:23:40.272Z,5.95
2022-09-23T12:26:17.221Z,8.27
2022-09-23T12:28:46.762Z,6.28
2022-09-23T12:31:17.022Z,8.25
2022-09-23T12:33:52.898Z,6.13
2022-09-23T12:36:35.423Z,6.32
2022-09-23T12:39:15.783Z,7.13
2022-09-23T12:41:48.645Z,7.07
2022-09-23T12:44:32.364Z,6.50
2022-09-23T12:47:27.999Z,8.27
2022-09-23T12:49:58.738Z,8.48
2022-09-23T12:52:28.542Z,8.10
2022-09-23T12:55:24.889Z,5.07
2022-09-23T12:57:51.571Z,7.05
2022-09-23T13:00:22.685Z,5.93
2022-09-23T13:03:12.317Z,6.90
2022-09-23T13:06:20.385Z,5.47
2022-09-23T13:08:49.370Z,11.10
2022-09-23T13:11:31.426Z,5.32
2022-09-23T13:14:02.638Z,8.45
2022-09-23T13:16:30.965Z,5.30
2022-09-23T13:19:01.330Z,5.82
2022-09-23T13:21:43.193Z,6.50
2022-09-23T13:24:20.316Z,5.68
2022-09-23T13:26:48.026Z,6.40
2022-09-23T13:29:25.681Z,7.28
2022-09-23T13:31:53.370Z,9.07
2022-09-23T13:34:24.388Z,9.43
2022-09-23T13:36:51.047Z,5.93
2022-09-23T13:39:28.753Z,7.22
2022-09-23T13:42:01.983Z,8.20
2022-09-23T13:44:29.661Z,6.22
2022-09-23T13:47:02.172Z,8.20
2022-09-23T13:49:35.331Z,8.18
2022-09-23T13:52:02.849Z,7.55
2022-09-23T13:54:36.341Z,8.27
2022-09-23T13:57:03.794Z,8.20
2022-09-23T13:59:38.003Z,10.10
2022-09-23T14:02:12.252Z,10.52
2022-09-23T14:04:39.413Z,8.25
2022-09-23T14:07:09.462Z,8.38
2022-09-23T14:09:37.908Z,10.13
2022-09-23T14:12:06.398Z,11.02
2022-09-23T14:14:36.408Z,11.27
2022-09-23T14:17:04.816Z,10.93
2022-09-23T14:19:32.487Z,9.38
2022-09-23T14:22:00.073Z,12.20
2022-09-23T14:24:29.723Z,14.30
2022-09-23T14:26:58.606Z,11.73
2022-09-23T14:29:37.290Z,13.68
2022-09-23T14:32:07.605Z,11.70
2022-09-23T14:34:45.495Z,12.88
2022-09-23T14:37:56.884Z,11.57
2022-09-23T14:40:31.033Z,8.25
2022-09-23T14:43:03.710Z,11.43
2022-09-23T14:45:40.774Z,9.65
2022-09-23T14:48:10.696Z,7.75
2022-09-23T14:50:39.361Z,10.45
2022-09-23T14:53:36.425Z,10.52
2022-09-23T14:56:06.042Z,10.93
2022-09-23T14:58:43.006Z,10.70
2022-09-23T15:01:38.787Z,8.95
2022-09-23T15:04:13.014Z,12.15
2022-09-23T15:06:44.939Z,9.77
2022-09-23T15:09:20.076Z,6.97
2022-09-23T15:11:47.253Z,12.60
2022-09-23T15:14:36.650Z,12.30
2022-09-23T15:17:03.541Z,8.68
2022-09-23T15:19:31.577Z,10.70
2022-09-23T15:21:58.334Z,11.70
2022-09-23T15:24:45.708Z,9.65
2022-09-23T15:27:30.482Z,10.63
2022-09-23T15:30:17.033Z,8.93
2022-09-23T15:32:45.569Z,10.00
2022-09-23T15:35:15.599Z,11.27
2022-09-23T15:37:43.850Z,11.73
2022-09-23T15:40:25.665Z,9.95
2022-09-23T15:42:56.248Z,14.10
2022-09-23T15:45:31.771Z,8.57
2022-09-23T15:48:03.205Z,11.00
2022-09-23T15:50:31.149Z,9.18
2022-09-23T15:52:57.913Z,9.85
2022-09-23T15:55:24.654Z,7.40
2022-09-23T15:57:51.313Z,12.23
2022-09-23T16:00:18.091Z,12.27
2022-09-23T16:02:47.063Z,14.45
2022-09-23T16:05:25.028Z,9.15
2022-09-23T16:07:52.427Z,10.45
2022-09-23T16:10:20.990Z,8.23
2022-09-23T16:12:48.289Z,9.05
2022-09-23T16:15:19.276Z,8.57
2022-09-23T16:17:46.068Z,8.48
2022-09-23T16:20:17.645Z,9.25
2022-09-23T16:25:15.594Z,8.68
2022-09-23T16:27:42.237Z,10.80
2022-09-23T16:30:10.111Z,10.38
2022-09-23T16:32:36.822Z,9.13
2022-09-23T16:35:03.949Z,10.40
2022-09-23T16:37:30.715Z,9.43
2022-09-23T16:39:57.515Z,10.23
2022-09-23T16:42:24.155Z,10.13
2022-09-23T16:44:50.791Z,11.23
2022-09-23T16:47:17.546Z,13.50
2022-09-23T16:49:44.249Z,11.32
2022-09-23T16:52:14.355Z,8.77
2022-09-23T16:54:42.167Z,11.55
2022-09-23T16:57:09.672Z,17.20
2022-09-23T16:59:54.743Z,18.92
2022-09-23T17:02:40.157Z,21.88
2022-09-23T17:05:07.310Z,21.40
2022-09-23T17:07:33.932Z,17.48
2022-09-23T17:10:00.609Z,17.75
2022-09-23T17:12:32.591Z,14.52
2022-09-23T17:15:00.544Z,15.18
2022-09-23T17:17:28.386Z,15.90
2022-09-23T17:19:55.027Z,14.45
2022-09-23T17:22:21.761Z,15.93
2022-09-23T17:24:48.390Z,16.50
2022-09-23T17:27:17.093Z,16.92
2022-09-23T17:29:44.423Z,15.50
2022-09-23T17:32:11.112Z,19.27
2022-09-23T17:34:37.793Z,19.00
2022-09-23T17:37:05.578Z,18.52
2022-09-23T17:39:32.219Z,16.50
2022-09-23T17:41:59.117Z,17.13
2022-09-23T17:44:26.371Z,16.02
2022-09-23T17:46:53.035Z,18.95
2022-09-23T17:49:20.277Z,24.92
2022-09-23T17:51:47.009Z,20.00
2022-09-23T17:54:14.981Z,22.83
2022-09-23T17:56:42.529Z,28.02
2022-09-23T17:59:12.553Z,22.10
2022-09-23T18:01:39.286Z,22.85
2022-09-23T18:04:06.060Z,21.60
2022-09-23T18:06:37.135Z,19.17
2022-09-23T18:09:06.509Z,19.17
2022-09-23T18:11:36.048Z,20.83
2022-09-23T18:14:05.669Z,22.75
2022-09-23T18:16:38.594Z,24.40
2022-09-23T18:19:06.876Z,26.45
2022-09-23T18:21:37.316Z,21.63
2022-09-23T18:24:28.562Z,20.05
2022-09-23T18:26:51.110Z,25.38
2022-09-23T18:29:18.510Z,22.48
2022-09-23T18:31:45.717Z,27.48
2022-09-23T18:34:15.190Z,29.17
2022-09-23T18:36:42.321Z,25.63
2022-09-23T18:39:09.260Z,24.50
2022-09-23T18:41:36.161Z,25.40
2022-09-23T18:44:03.802Z,25.70
2022-09-23T18:46:31.530Z,27.20
2022-09-23T18:49:17.306Z,24.85
2022-09-23T18:51:53.600Z,23.55
2022-09-23T18:54:20.480Z,29.00
2022-09-23T18:56:47.482Z,25.05
2022-09-23T18:59:18.020Z,25.48
2022-09-23T19:01:45.880Z,26.65
2022-09-23T19:04:14.134Z,30.00
2022-09-23T19:06:40.787Z,28.88
2022-09-23T19:09:07.685Z,28.65
2022-09-23T19:11:36.217Z,26.45
2022-09-23T19:14:05.846Z,25.75
2022-09-23T19:16:33.280Z,27.73
2022-09-23T19:19:00.338Z,29.35
2022-09-23T19:21:28.398Z,28.88
2022-09-23T19:24:03.660Z,28.83
2022-09-23T19:26:41.362Z,28.55
2022-09-23T19:29:12.477Z,31.08
2022-09-23T19:31:40.001Z,27.00
2022-09-23T19:34:12.172Z,28.30
2022-09-23T19:36:40.730Z,29.63
2022-09-23T19:39:15.062Z,26.00
2022-09-23T19:41:41.813Z,27.45
2022-09-23T19:44:08.692Z,30.88
2022-09-23T19:46:37.707Z,30.30
2022-09-23T19:49:05.957Z,28.85
2022-09-23T19:51:34.023Z,25.42
2022-09-23T19:54:02.105Z,29.38
2022-09-23T19:56:30.466Z,31.45
2022-09-23T19:58:58.234Z,25.52
2022-09-23T20:01:29.596Z,28.58
2022-09-23T20:03:56.738Z,26.42
2022-09-23T20:06:23.552Z,31.15
2022-09-23T20:08:50.317Z,29.30
2022-09-23T20:11:21.788Z,29.35
2022-09-23T20:13:58.428Z,30.13
2022-09-23T20:16:25.837Z,27.70
2022-09-23T20:18:53.006Z,32.35
2022-09-23T20:21:19.665Z,28.13
2022-09-23T20:23:46.337Z,29.85
2022-09-23T20:26:31.612Z,29.90
2022-09-23T20:29:01.364Z,29.98
2022-09-23T20:31:28.714Z,29.90
2022-09-23T20:33:58.496Z,39.53
2022-09-23T20:36:26.628Z,30.73
2022-09-23T20:38:59.610Z,30.55
2022-09-23T20:41:27.847Z,30.15
2022-09-23T20:43:55.284Z,30.20
2022-09-23T20:46:23.399Z,30.45
2022-09-23T20:48:50.312Z,32.20
2022-09-23T20:51:17.799Z,28.25
2022-09-23T20:53:45.735Z,29.75
2022-09-23T20:56:13.890Z,31.13
2022-09-23T20:58:40.571Z,28.48
2022-09-23T21:01:12.432Z,34.40
2022-09-23T21:03:41.661Z,26.50
2022-09-23T21:06:09.690Z,31.67
2022-09-23T21:08:37.689Z,28.42
2022-09-23T21:11:08.034Z,29.38
2022-09-23T21:13:35.240Z,26.02
2022-09-23T21:16:03.763Z,29.70
2022-09-23T21:18:30.890Z,24.70
2022-09-23T21:20:59.444Z,26.08
2022-09-23T21:23:34.402Z,25.38
2022-09-23T21:26:12.076Z,26.52
2022-09-23T21:28:43.896Z,28.70
2022-09-23T21:31:22.590Z,24.80
2022-09-23T21:33:53.357Z,23.38
2022-09-23T21:36:20.902Z,25.25
2022-09-23T21:38:47.608Z,22.85
2022-09-23T21:41:14.329Z,22.77
2022-09-23T21:43:41.344Z,25.63
2022-09-23T21:46:10.901Z,24.23
2022-09-23T21:48:41.088Z,23.58
2022-09-23T21:51:13.372Z,25.95
2022-09-23T21:53:41.214Z,25.23
2022-09-23T21:56:11.880Z,26.58
2022-09-23T21:58:40.732Z,26.63
2022-09-23T22:01:20.461Z,31.58
2022-09-23T22:03:57.801Z,29.95
2022-09-23T22:06:27.109Z,26.50
2022-09-23T22:08:55.706Z,30.08
2022-09-23T22:11:41.952Z,34.15
2022-09-23T22:14:11.786Z,34.97
2022-09-23T22:16:39.191Z,33.70
2022-09-23T22:19:09.193Z,34.20
2022-09-23T22:21:38.044Z,34.08
2022-09-23T22:24:07.300Z,37.25
2022-09-23T22:26:36.572Z,36.45
2022-09-23T22:29:27.956Z,36.80
2022-09-23T22:32:13.274Z,39.40
2022-09-23T22:34:51.463Z,36.38
2022-09-23T22:37:27.585Z,32.47
2022-09-23T22:39:54.577Z,31.85
2022-09-23T22:42:22.315Z,34.50
2022-09-23T22:44:50.126Z,31.25
2022-09-23T22:47:20.037Z,29.08
2022-09-23T22:49:47.209Z,29.02
2022-09-23T22:52:15.833Z,31.13
2022-09-23T22:54:42.486Z,32.53
2022-09-23T22:57:09.817Z,34.75
2022-09-23T22:59:37.350Z,31.55
2022-09-23T23:02:05.075Z,33.70
2022-09-23T23:04:31.964Z,31.60
2022-09-23T23:06:58.780Z,35.72
2022-09-23T23:09:25.815Z,32.42
2022-09-23T23:11:52.461Z,34.42
2022-09-23T23:14:19.453Z,33.60
2022-09-23T23:16:47.122Z,34.10
2022-09-23T23:19:16.962Z,35.85
2022-09-23T23:21:45.446Z,33.60
2022-09-23T23:24:20.854Z,34.65
2022-09-23T23:26:48.556Z,31.80
2022-09-23T23:29:17.613Z,33.65
2022-09-23T23:31:44.994Z,32.45
2022-09-23T23:34:14.643Z,32.38
2022-09-23T23:36:41.477Z,33.38
2022-09-23T23:39:08.370Z,33.65
2022-09-23T23:41:35.065Z,32.50
2022-09-23T23:44:01.966Z,31.92
2022-09-23T23:46:30.531Z,32.13
2022-09-23T23:48:58.125Z,31.10
2022-09-23T23:51:26.454Z,32.50
2022-09-23T23:53:54.157Z,35.13
2022-09-23T23:56:22.953Z,36.30
2022-09-23T23:59:01.097Z,36.47
